Latest Weather Observations for Sydney Olympic Park

IDN60801

Issued at 7:13 pm EDT Monday 4 March 2024 (issued every 10 minutes, with the page automatically refreshed every 10 minutes)

About weather observations | Map of weather stations | Latest weather observations for NSW | Other Formats
Station Details ID: 066212 Name: SYDNEY OLYMPIC PARK AWS (ARCHERY CENTRE) Lat: -33.83 Lon: 151.07 Height: 4.0 m
Data from the previous 72 hours. | See also: Recent months at Sydney Olympic Park
Date/Time
EDT
Temp
°C
App
Temp
°C
Dew
Point
°C
Rel
Hum
%
Delta-T
°C
Wind Press
QNH
hPa
Press
MSL
hPa
Rain since
9am
mm
Dir  Spd
km/h
Gust
km/h
Spd
kts
Gust
kts
04/07:00pm 21.0 19.3 13.7 63 4.2 ESE 15 24 8 13 - - 0.0
04/06:30pm 21.5 19.2 14.2 63 4.3 E 19 32 10 17 - - 0.0
04/06:00pm 22.2 19.7 13.5 57 5.0 ESE 19 26 10 14 - - 0.0
04/05:30pm 21.7 19.1 13.3 59 4.8 ESE 19 28 10 15 - - 0.0
04/05:00pm 22.5 20.7 14.4 60 4.8 ESE 17 24 9 13 - - 0.0
04/04:30pm 22.0 19.7 14.1 61 4.6 E 19 24 10 13 - - 0.0
04/04:00pm 21.9 19.9 13.8 60 4.7 ESE 17 26 9 14 - - 0.0
04/03:30pm 21.8 19.4 13.7 60 4.7 E 19 28 10 15 - - 0.0
04/03:00pm 22.4 19.9 14.0 59 4.9 ESE 20 30 11 16 - - 0.0
04/02:30pm 22.7 20.7 14.0 58 5.1 ESE 17 26 9 14 - - 0.0
04/02:00pm 22.5 20.5 13.8 58 5.1 ESE 17 28 9 15 - - 0.0
04/01:30pm 22.0 20.3 13.6 59 4.9 ESE 15 24 8 13 - - 0.0
04/01:00pm 21.8 20.0 13.2 58 4.9 SE 15 24 8 13 - - 0.0
04/12:30pm 22.3 20.5 13.4 57 5.1 SE 15 22 8 12 - - 0.0
04/12:00pm 22.6 21.1 14.2 59 4.9 SE 15 28 8 15 - - 0.0
04/11:30am 22.0 19.8 13.4 58 5.0 ESE 17 28 9 15 - - 0.0
04/11:00am 21.4 19.1 13.1 59 4.7 SE 17 30 9 16 - - 0.0
04/10:30am 21.4 19.3 12.5 57 5.0 SE 15 26 8 14 - - 0.0
04/10:00am 21.2 18.9 13.1 60 4.6 SE 17 24 9 13 - - 0.0
04/09:30am 20.8 19.2 12.8 60 4.5 ESE 13 20 7 11 - - 0.0
04/09:00am 20.6 19.0 12.8 61 4.4 SE 13 20 7 11 - - 0.0
04/08:30am 20.5 18.1 12.5 60 4.5 ESE 17 28 9 15 - - 0.0
04/08:00am 20.4 17.5 12.4 60 4.5 ESE 19 30 10 16 - - 0.0
04/07:30am 20.4 18.7 12.4 60 4.5 SE 13 24 7 13 - - 0.0
04/07:00am 20.4 18.5 13.1 63 4.2 ESE 15 28 8 15 - - 0.0
04/06:30am 20.4 18.5 14.3 68 3.5 ESE 17 26 9 14 - - 0.0
04/06:00am 20.3 18.6 14.7 70 3.3 ESE 17 26 9 14 - - 0.0
04/05:30am 20.1 18.2 15.7 76 2.6 ESE 20 35 11 19 - - 0.0
04/05:00am 21.2 19.9 15.7 71 3.3 ESE 17 30 9 16 - - 0.0
04/04:30am 21.6 20.0 16.1 71 3.3 ESE 19 33 10 18 - - 0.0
04/04:00am 21.3 20.0 16.9 76 2.7 E 19 28 10 15 - - 0.0
04/03:30am 21.3 21.4 15.6 70 3.4 E 9 15 5 8 - - 0.0
04/03:00am 21.9 20.9 15.5 67 3.8 E 15 22 8 12 - - 0.0
04/02:30am 22.0 21.1 15.8 68 3.7 E 15 22 8 12 - - 0.0
04/02:00am 22.0 21.3 16.5 71 3.3 E 15 26 8 14 - - 0.0
04/01:30am 22.0 20.7 16.7 72 3.2 E 19 30 10 16 - - 0.0
04/01:00am 22.1 21.0 17.2 74 3.0 E 19 35 10 19 - - 0.0
04/12:30am 22.3 21.6 18.3 78 2.5 ESE 19 32 10 17 - - 0.0
04/12:00am 22.8 23.2 19.0 79 2.4 E 15 26 8 14 - - 0.0
 
Date/Time
EDT
Temp
°C
App
Temp
°C
Dew
Point
°C
Rel
Hum
%
Delta-T
°C
Wind Press
QNH
hPa
Press
MSL
hPa
Rain since
9am
mm
Dir  Spd
km/h
Gust
km/h
Spd
kts
Gust
kts
03/11:30pm 22.9 22.7 19.3 80 2.3 E 19 28 10 15 - - 0.0
03/11:00pm 23.7 24.6 20.0 80 2.4 E 15 20 8 11 - - 0.0
03/10:30pm 23.7 25.1 19.6 78 2.6 E 11 17 6 9 - - 0.0
03/10:00pm 24.3 25.2 20.0 77 2.8 ESE 15 22 8 12 - - 0.0
03/09:30pm 24.4 26.5 20.9 81 2.3 E 11 20 6 11 - - 0.0
03/09:00pm 24.4 26.7 21.3 83 2.0 E 11 17 6 9 - - 0.0
03/08:30pm 24.5 26.2 21.0 81 2.3 ENE 13 20 7 11 - - 0.0
03/08:00pm 24.7 25.8 20.4 77 2.8 E 15 20 8 11 - - 0.0
03/07:30pm 26.4 26.0 18.0 60 5.3 ESE 17 26 9 14 - - 0.0
03/07:00pm 27.8 26.5 15.8 48 7.4 ESE 17 28 9 15 - - 0.0
03/06:30pm 29.9 27.9 14.0 37 9.6 SE 17 30 9 16 - - 0.0
03/06:00pm 32.7 28.8 5.3 18 14.5 SSW 15 26 8 14 - - 0.0
03/05:30pm 32.9 30.1 7.0 20 14.1 SSW 11 20 6 11 - - 0.0
03/05:00pm 32.4 29.7 10.4 26 12.7 WSW 15 26 8 14 - - 0.0
03/04:30pm 32.5 30.4 9.9 25 12.9 S 11 26 6 14 - - 0.0
03/04:00pm 32.1 32.4 15.1 35 10.5 S 7 15 4 8 - - 0.0
03/03:30pm 31.4 31.9 18.4 46 8.4 W 13 22 7 12 - - 0.0
03/03:00pm 31.3 33.0 18.6 46 8.2 WSW 7 17 4 9 - - 0.0
03/02:30pm 30.8 31.5 18.8 48 7.8 W 13 24 7 13 - - 0.0
03/02:00pm 30.2 30.3 16.6 44 8.5 W 11 20 6 11 - - 0.0
03/01:30pm 28.9 29.1 17.7 50 7.1 W 13 26 7 14 - - 0.0
03/01:00pm 27.9 28.9 19.4 60 5.5 NW 13 20 7 11 - - 0.0
03/12:30pm 27.0 28.1 18.8 60 5.3 WNW 11 22 6 12 - - 0.0
03/12:00pm 26.4 27.5 18.8 63 4.9 NW 11 19 6 10 - - 0.0
03/11:30am 25.8 27.1 19.2 67 4.2 WNW 11 17 6 9 - - 0.0
03/11:00am 25.3 26.2 18.5 66 4.3 WNW 11 17 6 9 - - 0.0
03/10:30am 25.1 26.4 19.2 70 3.8 WNW 11 15 6 8 - - 0.0
03/10:00am 24.6 26.8 20.3 77 2.8 W 9 15 5 8 - - 0.0
03/09:30am 23.2 24.7 18.9 77 2.7 NW 9 13 5 7 - - 0.0
03/09:00am 21.6 23.5 19.0 85 1.6 WSW 7 9 4 5 - - 1.2
03/08:30am 20.3 22.1 18.4 89 1.2 WNW 6 7 3 4 - - 1.2
03/08:00am 19.4 21.4 18.7 96 0.4 WNW 6 7 3 4 - - 1.2
03/07:30am 18.7 21.6 18.2 97 0.3 CALM 0 0 0 0 - - 1.2
03/07:00am 18.2 20.5 17.6 96 0.4 W 2 6 1 3 - - 1.2
03/06:30am 18.3 21.0 17.7 96 0.4 CALM 0 2 0 1 - - 1.2
03/06:00am 18.6 20.2 17.9 96 0.4 W 6 11 3 6 - - 1.2
03/05:30am 18.8 21.3 18.1 96 0.4 W 2 6 1 3 - - 1.2
03/05:00am 19.0 20.8 18.2 95 0.5 W 6 7 3 4 - - 1.2
03/04:30am 19.4 20.9 18.1 92 0.8 W 7 9 4 5 - - 1.2
03/04:00am 19.8 21.5 18.1 90 1.1 W 6 9 3 5 - - 1.2
03/03:30am 20.3 22.1 18.4 89 1.2 W 6 7 3 4 - - 1.2
03/03:00am 20.2 21.8 17.8 86 1.5 W 6 7 3 4 - - 1.2
03/02:30am 20.9 22.4 18.1 84 1.7 WSW 7 13 4 7 - - 1.2
03/02:00am 20.8 22.7 18.6 87 1.4 W 6 9 3 5 - - 1.2
03/01:30am 21.3 24.4 18.7 85 1.6 CALM 0 0 0 0 - - 1.2
03/01:00am 21.3 24.1 17.9 81 2.1 CALM 0 0 0 0 - - 1.2
03/12:30am 21.6 23.2 17.8 79 2.4 ESE 6 7 3 4 - - 1.2
03/12:00am 21.8 23.2 17.8 78 2.5 ESE 7 9 4 5 - - 1.2
 
Date/Time
EDT
Temp
°C
App
Temp
°C
Dew
Point
°C
Rel
Hum
%
Delta-T
°C
Wind Press
QNH
hPa
Press
MSL
hPa
Rain since
9am
mm
Dir  Spd
km/h
Gust
km/h
Spd
kts
Gust
kts
02/11:30pm 22.0 23.4 17.8 77 2.6 E 7 11 4 6 - - 1.2
02/11:00pm 21.9 23.3 17.9 78 2.5 E 7 11 4 6 - - 1.2
02/10:30pm 22.0 22.9 17.6 76 2.7 E 9 11 5 6 - - 1.2
02/10:00pm 22.1 23.0 17.5 75 2.8 E 9 13 5 7 - - 1.2
02/09:30pm 22.0 22.3 18.0 78 2.5 E 13 24 7 13 - - 1.2
02/09:00pm 21.9 22.3 18.1 79 2.4 E 13 20 7 11 - - 1.2
02/08:30pm 21.4 22.5 18.8 85 1.6 E 11 15 6 8 - - 1.2
02/08:00pm 22.3 22.9 18.5 79 2.4 ESE 13 20 7 11 - - 1.0
02/07:30pm 22.2 23.4 19.0 82 2.0 ESE 11 15 6 8 - - 1.0
02/07:00pm 22.3 23.0 18.9 81 2.1 ESE 13 19 7 10 - - 1.0
02/06:30pm 22.5 23.2 18.9 80 2.3 ESE 13 20 7 11 - - 1.0
02/06:00pm 22.6 22.2 19.0 80 2.3 ESE 19 32 10 17 - - 1.0
02/05:30pm 22.8 23.8 19.4 81 2.2 ESE 13 20 7 11 - - 1.0
02/05:00pm 22.8 23.8 19.4 81 2.2 ESE 13 20 7 11 - - 1.0
02/04:30pm 22.8 23.9 19.6 82 2.0 ESE 13 20 7 11 - - 1.0
02/04:00pm 22.8 23.6 19.8 83 1.9 ESE 15 22 8 12 - - 1.0
02/03:30pm 22.6 23.5 20.1 86 1.6 SE 15 26 8 14 - - 1.0
02/03:00pm 22.4 24.6 20.3 88 1.4 E 9 13 5 7 - - 1.0
02/02:43pm 22.3 24.7 20.0 87 1.5 SE 7 13 4 7 - - 1.0
02/02:30pm 22.2 24.1 19.7 86 1.6 SE 9 13 5 7 - - 0.8
02/02:28pm 22.4 24.5 20.1 87 1.5 SE 9 13 5 7 - - 0.8
02/02:00pm 22.7 23.9 19.9 84 1.8 SE 13 20 7 11 - - 0.2
02/01:30pm 23.5 24.1 19.4 78 2.6 SE 15 22 8 12 - - 0.0
02/01:00pm 24.0 24.3 19.7 77 2.8 ESE 17 30 9 16 - - 0.0
02/12:30pm 24.2 24.7 20.1 78 2.7 SE 17 26 9 14 - - 0.0
02/12:00pm 24.2 24.1 19.9 77 2.8 SE 20 35 11 19 - - 0.0
02/11:30am 24.3 24.7 20.6 80 2.4 SE 19 33 10 18 - - 0.0
02/11:00am 24.2 24.6 20.7 81 2.3 ESE 19 28 10 15 - - 0.0
02/10:30am 24.4 24.3 20.7 80 2.4 ESE 22 33 12 18 - - 0.0
02/10:00am 24.5 24.9 21.0 81 2.3 ESE 20 33 11 18 - - 0.0
02/09:30am 24.7 25.0 20.8 79 2.6 ESE 20 28 11 15 - - 0.0
02/09:00am 26.1 29.4 23.2 84 2.0 ESE 11 22 6 12 - - 0.0
02/08:30am 26.1 30.3 23.4 85 1.8 SE 7 11 4 6 - - 0.0
02/08:00am 25.7 29.7 22.8 84 2.0 NNW 6 7 3 4 - - 0.0
02/07:30am 24.7 29.9 22.8 89 1.3 CALM 0 7 0 4 - - 0.0
02/07:00am 24.1 27.8 22.2 89 1.3 E 6 7 3 4 - - 0.0
02/06:30am 24.5 27.9 22.0 86 1.7 ENE 7 9 4 5 - - 0.0
02/06:00am 24.9 28.1 22.4 86 1.7 ENE 9 11 5 6 - - 0.0
02/05:30am 24.7 28.6 22.6 88 1.4 E 6 11 3 6 - - 0.0
02/05:00am 23.9 28.5 22.5 92 0.9 W 2 11 1 6 - - 0.0
02/04:30am 24.1 28.3 22.4 90 1.1 W 4 6 2 3 - - 0.0
02/04:00am 24.3 29.2 22.4 89 1.3 CALM 0 0 0 0 - - 0.0
02/03:30am 24.6 29.7 22.7 89 1.3 CALM 0 0 0 0 - - 0.0
02/03:00am 24.8 29.9 22.7 88 1.4 CALM 0 0 0 0 - - 0.0
02/02:30am 24.9 30.1 22.8 88 1.4 CALM 0 0 0 0 - - 0.0
02/02:00am 24.8 29.8 22.5 87 1.5 CALM 0 0 0 0 - - 0.0
02/01:30am 24.7 29.6 22.4 87 1.5 CALM 0 0 0 0 - - 0.0
02/01:00am 25.0 28.9 22.5 86 1.7 N 6 7 3 4 - - 0.0
02/12:30am 25.2 30.3 22.7 86 1.7 CALM 0 0 0 0 - - 0.0
02/12:00am 25.3 30.4 22.6 85 1.8 CALM 0 0 0 0 - - 0.0
 
Date/Time
EDT
Temp
°C
App
Temp
°C
Dew
Point
°C
Rel
Hum
%
Delta-T
°C
Wind Press
QNH
hPa
Press
MSL
hPa
Rain since
9am
mm
Dir  Spd
km/h
Gust
km/h
Spd
kts
Gust
kts
01/11:30pm 25.3 30.2 22.4 84 1.9 CALM 0 0 0 0 - - 0.0
01/11:00pm 25.5 30.0 22.2 82 2.2 WNW 2 7 1 4 - - 0.0
01/10:30pm 25.7 29.8 22.2 81 2.3 WNW 4 7 2 4 - - 0.0
01/10:00pm 26.0 29.5 22.1 79 2.6 NW 7 11 4 6 - - 0.0
01/09:30pm 26.0 29.0 21.9 78 2.7 NNW 9 15 5 8 - - 0.0
01/09:00pm 26.3 29.6 21.9 77 2.9 N 7 15 4 8 - - 0.0
01/08:30pm 26.3 29.6 21.9 77 2.9 NNW 7 17 4 9 - - 0.0
01/08:00pm 26.5 30.0 22.1 77 3.0 N 7 13 4 7 - - 0.0
01/07:30pm 26.5 30.0 22.1 77 3.0 WNW 7 13 4 7 - - 0.0

Other formats

Comma delimited format used in spreadsheet applications
http://www.bom.gov.au/fwo/IDN60801/IDN60801.95765.axf

JavaScript Object Notation format (JSON) in row-major order
http://www.bom.gov.au/fwo/IDN60801/IDN60801.95765.json

Data quality

Most of these data are generated automatically and are frequently updated. Quality checks on data are not normally performed. It is possible for incorrect values to appear. Refer to information at About Latest Weather Observations and please check the disclaimer before using these data.